Harkers Island, North Carolina
Current Conditions -  °F | °C
As of 3:58 PM on Monday 24 Nov 2014 (Local Time) from KMRH Reporting Station
Haze Haze  
Wind Chill: 69°   Ceiling: Unl
Heat Index: 69°   Visibility: 4mi
Dew Point: 68°   Wind: 15mph
Humidity: 96%   Direction: 210°SSW
Pressure: 29.87"   Gusts: NA
Location:  34.7°N, 76.56°W
Report Text: KMRH 242058Z AUTO 21013KT 4SM BR FEW012 SCT110 21/20 A2987 RMK AO2 SLP116 T02060200 58002 TSNO
Loading
Personal Weather Stations






























Interactive Weather Map New forecast layout! Learn more

10-Day Weather Forecast

Advertisements
Track Severe Weather on mobile